Date,TemperatureHighF,TemperatureAvgF,TemperatureLowF,DewpointHighF,DewpointAvgF,DewpointLowF,HumidityHigh,HumidityAvg,HumidityLow,PressureMaxIn,PressureMinIn,WindSpeedMaxMPH,WindSpeedAvgMPH,GustSpeedMaxMPH,PrecipitationSumIn
2014-1-1,66.7,42.0,25.5,28.5,16.7,9.8,59,38,18,29.96,29.87,6,1,6,0.00
2014-1-2,65.5,46.2,34.9,26.7,18.6,13.2,43,34,21,30.05,29.93,8,3,8,0.00
2014-1-3,67.8,44.1,32.5,31.7,20.9,15.5,51,40,23,29.93,29.75,7,2,7,0.00
2014-1-4,62.1,48.3,35.4,27.6,18.1,12.4,45,32,16,29.81,29.75,18,3,18,0.00
2014-1-5,61.7,43.6,30.6,27.4,16.1,2.0,49,33,22,29.96,29.81,10,2,13,0.00
2014-1-6,59.4,40.0,27.5,11.0,1.7,-8.9,30,21,10,30.08,29.93,10,3,10,0.00
2014-1-7,62.8,42.3,29.3,11.9,-0.9,-11.1,20,16,12,29.99,29.84,8,2,8,0.00
2014-1-8,66.0,47.3,33.1,20.3,8.4,-0.4,31,21,10,29.90,29.81,14,3,15,0.00
2014-1-9,63.0,44.8,26.2,24.6,5.2,-1.1,41,21,12,29.90,29.75,9,3,10,0.00
2014-1-10,63.0,43.2,25.2,23.1,11.1,3.8,42,28,13,29.93,29.81,13,3,13,0.00
2014-1-11,68.5,39.7,26.1,29.1,14.1,6.8,50,36,15,30.02,29.87,6,1,6,0.00
2014-1-12,66.7,46.9,30.2,27.0,15.4,8.4,50,31,12,29.96,29.81,21,4,21,0.00
2014-1-13,51.3,36.5,28.2,21.6,14.5,8.4,46,40,30,30.11,29.96,5,1,5,0.00
2014-1-14,64.4,45.9,22.8,15.3,2.3,-7.9,35,18,8,30.08,29.99,11,3,11,0.00
2014-1-15,64.9,37.4,28.9,10.0,-0.4,-8.9,29,21,8,30.11,29.96,11,2,11,0.00
2014-1-16,67.5,43.6,26.6,15.9,-0.2,-10.1,31,17,7,29.99,29.87,9,2,9,0.00
2014-1-17,67.1,45.6,31.5,8.7,-1.6,-11.0,19,14,8,29.99,29.90,8,2,8,0.00
2014-1-18,70.0,36.9,27.3,10.7,-3.7,-8.8,30,18,8,29.99,29.90,5,0,5,0.00
2014-1-19,67.6,46.1,33.4,9.0,-1.1,-8.9,19,14,9,30.05,29.93,6,1,6,0.00
2014-1-20,72.3,45.9,28.4,12.2,0.8,-8.4,30,16,7,30.05,29.93,12,1,12,0.00
2014-1-21,67.5,48.4,32.5,9.0,-0.9,-10.1,17,13,8,30.11,29.93,9,2,9,0.00
2014-1-22,73.2,53.6,37.4,10.9,1.8,-4.7,19,12,6,29.93,29.72,17,3,17,0.00
2014-1-23,68.4,48.9,32.2,12.1,1.4,-7.5,24,14,8,30.05,29.75,7,1,7,0.00
2014-1-24,55.0,43.9,33.8,11.5,6.5,0.5,30,22,15,30.17,30.05,13,5,13,0.00
2014-1-25,69.8,53.7,43.5,36.6,23.7,4.3,39,32,17,30.05,29.90,15,3,15,0.00
2014-1-26,66.6,52.4,36.3,32.0,25.2,18.5,56,36,23,29.90,29.78,20,3,20,0.00
2014-1-27,66.4,52.8,42.8,29.1,23.9,18.0,48,33,23,29.84,29.75,14,3,14,0.00
2014-1-28,67.6,40.3,28.8,26.8,14.1,-3.8,52,37,10,29.90,29.78,10,1,10,0.00
2014-1-29,69.8,47.8,28.6,17.9,5.3,-3.9,34,20,7,29.93,29.78,13,2,13,0.00
2014-1-30,74.5,55.9,37.4,11.1,2.5,-7.7,14,11,8,29.81,29.67,18,5,18,0.00
2014-1-31,69.4,59.2,52.7,29.6,16.1,3.4,39,20,12,29.72,29.61,26,10,26,0.00
2014-2-1,58.1,50.5,41.2,31.9,28.7,22.3,50,43,36,29.75,29.64,18,6,18,0.00
2014-2-2,60.1,43.7,28.8,27.7,20.9,10.9,65,42,25,29.87,29.75,12,3,12,0.00
2014-2-3,58.6,40.0,25.3,28.2,14.1,2.5,73,39,12,29.75,29.55,14,4,14,0.08
2014-2-4,51.1,38.2,26.8,29.9,22.7,17.2,79,56,30,29.84,29.70,15,3,15,0.00
2014-2-5,61.0,43.4,27.3,30.1,22.1,14.3,67,45,24,29.84,29.70,16,4,16,0.00
2014-2-6,53.1,41.5,29.7,29.6,20.6,16.1,66,44,31,29.84,29.72,16,3,16,0.00
2014-2-7,59.5,46.4,33.8,32.1,26.4,19.1,73,48,28,29.93,29.75,14,4,17,0.00
2014-2-8,66.9,47.3,30.0,32.0,20.9,15.0,62,39,15,30.02,29.90,15,2,15,0.00
2014-2-9,73.0,52.1,33.4,35.8,23.4,15.2,52,34,17,29.96,29.84,15,3,15,0.00
2014-2-10,71.6,54.2,39.2,31.7,22.0,14.9,49,31,14,29.87,29.72,22,4,22,0.00
2014-2-11,68.4,51.9,35.1,30.9,20.0,6.6,52,31,12,29.90,29.75,14,3,14,0.00
2014-2-12,71.1,49.5,30.6,25.1,11.5,-1.6,42,25,9,29.96,29.84,9,1,9,0.00
2014-2-13,77.7,45.7,35.2,23.2,6.8,-1.6,31,22,7,29.96,29.81,14,1,14,0.00
2014-2-14,81.0,57.7,37.6,27.2,11.0,-0.6,32,18,6,29.93,29.84,15,3,15,0.00
2014-2-15,83.3,54.9,36.5,19.6,6.5,-1.6,29,16,5,29.93,29.84,17,2,17,0.00
2014-2-16,79.3,59.9,41.5,13.5,3.4,-4.7,18,11,5,29.90,29.81,17,4,17,0.00
2014-2-17,80.4,59.2,40.3,12.4,2.9,-4.9,16,10,6,29.93,29.81,12,2,12,0.00
2014-2-18,78.1,57.4,36.3,11.6,2.0,-8.3,17,11,6,29.87,29.75,13,3,13,0.00
2014-2-19,72.7,60.0,42.8,10.7,1.6,-4.6,15,10,6,29.78,29.64,19,5,19,0.00
2014-2-20,70.5,61.2,37.2,8.8,1.0,-7.5,18,9,7,29.87,29.72,17,6,17,0.00
2014-2-21,72.3,51.6,31.3,10.7,-2.4,-11.0,15,11,6,29.87,29.72,15,2,15,0.00
2014-2-22,73.0,53.7,33.3,3.9,-2.2,-13.4,15,10,6,29.78,29.70,18,3,18,0.00
2014-2-23,71.8,58.5,46.4,10.0,0.1,-3.8,12,9,6,29.87,29.78,11,2,11,0.00
2014-2-24,77.9,59.9,44.2,11.9,3.2,-4.9,15,10,7,29.87,29.75,10,2,10,0.00
2014-2-25,72.9,58.0,45.0,23.1,9.9,-0.2,29,15,9,29.84,29.78,15,3,15,0.00
2014-2-26,71.2,57.3,43.2,35.3,23.1,10.8,46,29,12,29.87,29.75,17,3,17,0.00
2014-2-27,71.2,58.4,40.5,33.4,24.8,20.0,49,29,17,29.81,29.67,20,6,24,0.00
2014-2-28,75.9,59.9,41.2,36.6,23.9,12.1,51,29,10,29.75,29.67,23,5,23,0.00
2014-3-1,65.5,54.8,44.6,47.9,34.2,21.9,95,52,24,29.78,29.70,26,8,26,0.71
2014-3-2,62.8,50.2,39.7,43.1,38.2,31.4,94,66,39,29.90,29.72,17,3,17,0.00
2014-3-3,67.3,53.0,44.6,41.2,37.6,34.1,77,58,33,29.87,29.75,13,2,13,0.00
2014-3-4,71.6,54.9,43.7,43.7,37.2,33.1,78,54,29,29.81,29.67,14,2,14,0.00
2014-3-5,72.9,53.6,38.8,39.7,29.5,8.5,76,45,9,29.90,29.78,8,2,8,0.00
2014-3-6,75.9,57.8,42.4,38.2,27.1,17.0,66,35,11,29.90,29.75,10,2,11,0.00
2014-3-7,70.7,58.7,43.5,34.7,26.4,15.2,52,31,14,29.75,29.67,23,6,23,0.00
2014-3-8,65.7,53.0,41.4,37.1,30.6,26.3,67,44,25,29.96,29.75,15,3,15,0.00
2014-3-9,67.3,50.5,38.3,28.1,24.3,18.7,64,38,17,30.05,29.87,16,5,16,0.00
2014-3-10,61.9,43.6,35.4,32.0,22.9,18.0,55,44,31,29.93,29.87,7,1,7,0.00
2014-3-11,71.1,60.3,43.0,32.0,22.4,12.8,45,25,14,29.81,29.72,15,5,15,0.00
2014-3-12,72.7,53.3,39.7,30.5,20.9,13.4,50,30,14,29.90,29.78,9,3,10,0.00
2014-3-13,72.0,48.6,40.8,31.7,19.0,14.1,41,31,19,29.84,29.67,15,3,15,0.00
2014-3-14,67.5,54.7,43.9,30.0,24.4,20.0,41,31,21,29.87,29.72,23,5,23,0.00
2014-3-15,69.1,54.0,37.0,31.0,14.9,-1.6,58,27,9,29.90,29.78,28,7,28,0.79
2014-3-16,70.9,52.2,37.0,10.5,0.9,-7.7,16,12,7,30.05,29.90,15,3,15,0.00
2014-3-17,76.1,61.1,33.4,21.5,8.1,-1.3,31,14,6,29.93,29.55,27,6,27,0.00
2014-3-18,74.1,61.3,47.7,11.1,3.7,-2.9,14,10,6,29.75,29.55,19,5,19,0.00
2014-3-19,75.7,56.1,37.8,14.8,3.0,-7.5,26,12,7,29.87,29.75,17,2,17,0.00
2014-3-20,78.4,58.9,38.5,12.2,4.1,-4.9,21,12,6,29.90,29.72,14,3,14,0.00
2014-3-21,75.9,64.5,53.2,11.1,4.3,-1.6,12,9,6,29.78,29.70,19,7,19,0.00
2014-3-22,75.9,60.8,43.2,15.6,4.6,-3.8,25,11,7,29.84,29.72,20,6,20,0.00
2014-3-23,76.3,57.9,39.6,17.9,6.9,-2.0,28,14,7,29.90,29.78,10,2,10,0.00
2014-3-24,78.6,58.8,41.2,21.6,8.4,-1.1,28,15,7,29.90,29.78,11,2,11,0.00
2014-3-25,77.4,57.0,40.6,32.5,14.5,-0.9,50,22,8,29.81,29.64,27,4,27,0.12
2014-3-26,73.9,57.9,37.9,34.4,18.4,6.9,72,28,8,29.72,29.58,27,8,27,0.12
2014-3-27,69.1,58.0,45.7,31.2,25.7,13.2,49,30,17,29.78,29.64,28,7,28,0.00
2014-3-28,73.2,55.5,39.0,29.8,19.1,9.2,45,26,11,29.93,29.78,15,4,15,0.00
2014-3-29,83.5,59.2,39.7,30.3,13.7,-1.6,40,21,6,29.96,29.78,13,2,13,0.00
2014-3-30,78.4,60.7,42.8,15.5,7.5,-3.8,22,13,8,29.81,29.70,28,6,28,0.00
2014-3-31,75.9,61.0,39.6,16.5,6.9,-1.0,29,13,6,29.84,29.72,21,5,22,0.00
2014-4-1,76.5,62.5,47.5,10.6,2.3,-3.4,14,9,5,29.78,29.67,29,6,29,0.00
2014-4-2,70.2,56.8,44.8,15.6,1.3,-4.9,27,11,7,29.70,29.58,33,9,33,0.00
2014-4-3,67.3,50.6,35.4,25.3,10.9,-6.5,47,24,7,29.84,29.72,12,3,12,0.00
2014-4-4,75.9,55.4,34.7,18.0,3.9,-6.9,28,14,6,29.81,29.64,17,4,17,0.00
2014-4-5,65.5,56.5,47.1,8.6,2.2,-3.8,14,11,8,29.72,29.64,20,6,20,0.00
2014-4-6,69.8,56.7,43.5,10.5,3.1,-3.3,20,11,7,29.81,29.70,18,6,18,0.00
2014-4-7,79.7,58.9,40.3,12.3,3.4,-4.9,18,11,6,29.96,29.81,12,3,12,0.00
2014-4-8,85.6,62.7,40.5,12.4,3.7,-6.5,16,10,5,30.05,29.90,13,2,13,0.00
2014-4-9,87.6,66.1,41.9,12.5,3.0,-5.5,13,8,5,29.96,29.84,14,3,14,0.00
2014-4-10,87.1,59.9,46.8,12.4,0.9,-3.8,12,9,5,29.93,29.78,19,2,19,0.00
2014-4-11,84.9,71.4,52.7,12.3,4.8,-1.6,11,7,5,29.90,29.72,18,4,18,0.00
2014-4-12,82.0,69.7,58.5,12.4,6.0,-0.3,14,8,5,29.75,29.61,26,8,26,0.00
2014-4-13,77.5,63.5,44.8,17.1,3.3,-4.7,16,9,5,29.75,29.64,23,7,23,0.00
2014-4-14,74.7,61.1,46.8,20.2,3.9,-3.8,26,11,6,29.90,29.75,13,3,13,0.00
2014-4-15,81.5,59.9,41.7,12.4,2.7,-5.2,16,10,6,29.90,29.67,10,3,10,0.00
2014-4-16,80.6,61.2,40.3,12.4,1.6,-6.7,13,9,5,29.72,29.61,19,4,19,0.00
2014-4-17,88.0,60.5,46.0,12.5,1.9,-3.8,12,9,5,29.84,29.75,12,2,12,0.00
2014-4-18,75.9,59.9,53.1,45.7,16.3,-1.1,74,27,8,29.87,29.75,23,2,23,0.04
2014-4-19,73.9,59.5,48.6,49.5,42.9,38.6,91,57,33,29.90,29.78,17,3,17,0.04
2014-4-20,81.1,58.0,42.3,48.1,37.6,29.7,86,53,18,29.96,29.84,8,1,8,0.00
2014-4-21,87.4,67.6,48.6,38.0,30.0,16.6,53,28,9,29.96,29.81,12,1,12,0.00
2014-4-22,90.1,70.9,50.9,37.5,20.2,8.6,39,19,5,29.84,29.67,24,5,24,0.00
2014-4-23,79.7,68.1,54.9,18.7,10.7,-1.1,17,11,7,29.81,29.67,26,7,26,0.00
2014-4-24,84.6,65.3,41.4,14.9,5.7,-3.8,21,10,5,29.87,29.75,16,4,16,0.00
2014-4-25,84.2,69.1,47.3,14.9,6.2,-1.1,19,9,5,29.81,29.70,21,5,21,0.00
2014-4-26,73.2,61.1,47.7,39.7,15.7,-1.1,65,22,8,29.75,29.55,33,10,33,1.18
2014-4-27,68.9,56.8,42.1,33.7,22.3,12.5,61,31,12,29.78,29.70,20,7,20,0.00
2014-4-28,77.0,62.2,45.5,27.2,15.3,6.7,30,18,8,29.84,29.75,20,5,20,0.00
2014-4-29,75.2,61.1,45.3,16.6,7.0,-2.4,24,13,6,29.93,29.78,13,4,13,0.00
2014-4-30,77.0,61.0,44.6,11.1,1.8,-4.9,12,9,6,29.87,29.75,15,4,15,0.00
2014-5-1,76.1,62.7,51.1,13.5,7.8,-1.6,16,12,8,29.90,29.81,17,5,17,0.00
2014-5-2,82.8,54.2,41.5,27.0,12.6,-1.1,29,21,6,29.99,29.84,23,1,23,0.00
2014-5-3,91.2,68.0,45.0,26.8,5.2,-3.8,20,9,5,29.96,29.81,14,2,14,0.00
2014-5-4,90.0,74.3,52.9,12.5,5.4,-1.6,11,7,5,29.96,29.81,19,4,19,0.00
2014-5-5,85.1,72.6,55.9,16.6,6.0,-1.1,15,8,5,29.93,29.78,21,6,21,0.00
2014-5-6,82.6,69.8,52.7,12.4,5.7,-1.6,11,8,5,29.78,29.61,23,8,23,0.00
2014-5-7,70.3,60.5,48.2,25.9,11.0,-1.1,28,15,8,29.78,29.64,27,6,27,0.00
2014-5-8,74.5,59.6,41.2,26.0,12.0,-0.8,36,17,7,29.90,29.78,29,4,29,0.00
2014-5-9,82.6,63.9,43.3,21.4,9.1,-1.0,28,13,6,29.93,29.78,19,3,19,0.00
2014-5-10,86.7,69.2,47.5,14.9,8.6,-0.5,18,10,6,29.84,29.64,20,5,20,0.00
2014-5-11,78.1,66.0,53.8,20.1,10.5,-1.5,22,12,7,29.81,29.61,28,8,28,0.00
2014-5-12,77.4,59.3,40.5,11.5,1.1,-6.5,13,10,6,29.90,29.81,16,3,16,0.00
2014-5-13,77.5,63.4,47.8,11.6,3.2,-3.8,12,9,6,30.05,29.90,10,3,10,0.00
2014-5-14,78.6,63.6,50.2,12.4,5.1,-2.2,14,10,6,30.11,29.99,15,3,15,0.00
2014-5-15,85.6,66.0,45.9,12.4,4.2,-4.0,14,9,5,30.08,29.93,11,2,11,0.00
2014-5-16,93.0,72.4,48.7,12.5,4.1,-3.4,11,7,4,29.99,29.84,18,3,18,0.00
2014-5-17,93.4,78.1,57.2,12.5,5.8,-1.1,9,6,4,29.90,29.78,17,5,17,0.00
2014-5-18,94.5,76.7,52.0,12.5,5.2,-1.6,11,7,4,29.84,29.72,17,4,17,0.00
2014-5-19,91.4,75.6,54.5,12.5,5.2,-1.1,10,7,5,29.84,29.78,27,6,27,0.00
2014-5-20,90.1,75.9,56.5,12.5,5.5,-1.1,10,7,5,29.87,29.78,25,7,25,0.00
2014-5-21,87.8,73.2,52.0,12.5,5.7,-1.6,11,7,5,29.84,29.78,26,6,26,0.00
2014-5-22,88.2,74.1,61.9,24.1,10.2,0.3,18,9,5,29.84,29.78,29,9,29,0.94
2014-5-23,83.1,69.6,56.3,16.9,7.8,-0.3,14,9,5,29.87,29.75,24,7,24,0.16
2014-5-24,78.6,65.2,48.9,26.4,12.1,0.3,30,14,7,29.87,29.78,16,4,16,0.00
2014-5-25,81.5,66.5,50.2,21.7,12.8,3.7,28,13,7,29.90,29.81,25,3,25,0.00
2014-5-26,90.1,72.7,50.7,32.9,16.9,8.5,37,15,5,29.93,29.84,21,4,21,0.00
2014-5-27,97.9,78.3,58.6,30.0,13.4,-0.2,25,11,3,29.96,29.81,21,2,21,0.00
2014-5-28,103.5,83.7,62.1,15.4,8.1,-2.8,13,6,2,29.90,29.75,17,5,17,0.00
2014-5-29,84.7,77.5,64.2,27.3,13.4,-0.3,24,9,5,29.90,29.81,20,6,20,0.00
2014-5-30,98.6,77.8,57.2,36.6,21.4,3.5,36,16,3,29.90,29.75,8,2,10,0.00
2014-5-31,99.7,83.3,63.3,26.8,11.8,3.5,20,8,3,29.87,29.75,20,5,20,0.00
2014-6-1,98.4,82.1,61.9,12.5,7.4,-0.3,11,6,3,29.87,29.75,18,4,18,0.00
2014-6-2,105.6,84.5,60.6,12.5,4.8,-2.8,9,5,2,29.87,29.75,21,4,21,0.00
2014-6-3,100.2,84.8,64.8,12.5,6.1,-0.3,9,5,3,29.87,29.75,19,4,19,0.00
2014-6-4,99.7,83.0,63.0,12.5,5.7,-0.3,8,5,3,29.84,29.72,21,4,21,0.00
2014-6-5,100.4,83.3,61.7,12.5,5.3,-2.8,9,5,3,29.81,29.70,20,4,20,0.00
2014-6-6,98.6,81.7,61.3,12.4,4.9,-1.3,9,5,3,29.78,29.70,23,4,23,0.00
2014-6-7,99.3,81.2,56.8,12.5,5.8,-1.1,10,6,3,29.81,29.70,16,4,16,0.00
2014-6-8,97.2,81.6,65.8,12.5,7.7,-0.3,10,6,3,29.84,29.72,17,4,17,0.00
2014-6-9,99.9,82.0,62.2,12.2,6.7,-0.3,11,6,3,29.87,29.75,14,2,14,0.00
2014-6-10,102.4,82.9,61.2,12.4,6.0,-2.8,9,6,2,29.87,29.75,17,5,17,0.00
2014-6-11,96.6,83.0,62.4,19.6,9.9,0.3,19,7,4,29.87,29.81,25,7,25,0.00
2014-6-12,99.3,85.1,71.4,29.9,12.7,3.5,21,8,3,29.96,29.84,17,5,17,0.00
2014-6-13,97.0,83.4,69.3,41.6,26.5,6.1,31,14,4,29.93,29.78,30,5,30,0.51
2014-6-14,94.8,83.1,68.4,34.7,16.3,6.1,24,9,4,29.84,29.75,25,8,25,0.00
2014-6-15,95.2,81.9,64.8,12.5,8.1,-0.2,10,6,4,29.87,29.78,26,8,26,0.00
2014-6-16,91.9,82.0,68.5,12.5,9.8,-0.3,10,7,4,29.90,29.81,26,7,26,0.00
2014-6-17,94.8,80.1,65.8,64.8,30.2,6.3,82,20,4,29.93,29.81,52,7,52,0.67
2014-6-18,91.4,79.0,65.1,46.6,36.7,24.5,46,24,10,29.90,29.81,22,7,22,0.00
2014-6-19,94.3,81.3,60.6,42.0,31.0,16.6,39,19,7,29.96,29.84,20,3,20,0.00
2014-6-20,99.9,81.3,61.9,37.7,22.3,3.5,34,15,3,29.96,29.81,13,2,13,0.00
2014-6-21,98.2,84.2,68.4,35.6,18.3,3.5,23,10,3,29.93,29.81,18,5,18,0.00
2014-6-22,97.3,84.5,70.0,30.4,20.0,14.9,21,10,6,29.96,29.81,15,6,15,0.00
2014-6-23,97.9,84.4,67.8,26.8,15.7,3.5,13,8,3,29.93,29.84,20,5,20,0.00
2014-6-24,97.2,84.4,66.7,35.3,17.9,3.5,16,9,3,29.99,29.84,23,5,23,0.00
2014-6-25,98.1,84.2,68.7,42.0,28.1,16.5,28,15,6,29.96,29.81,24,5,24,0.00
2014-6-26,98.1,85.2,69.6,48.1,31.2,16.5,34,17,6,29.93,29.78,25,6,25,0.00
2014-6-27,94.8,84.5,74.1,35.6,16.5,6.1,20,9,4,29.84,29.75,26,8,26,0.00
2014-6-28,98.8,84.1,66.6,34.4,17.3,3.5,23,10,3,29.90,29.81,14,5,14,0.00
2014-6-29,101.5,86.2,69.1,41.8,23.6,6.1,23,12,4,29.99,29.84,17,4,17,0.00
2014-6-30,100.4,87.1,76.1,48.5,26.0,3.5,34,14,3,29.96,29.81,15,6,15,0.00
2014-7-1,100.2,86.0,71.6,21.3,11.1,3.5,13,6,3,29.93,29.81,17,5,17,0.00
2014-7-2,100.4,82.1,67.8,65.5,32.3,9.1,68,22,4,29.99,29.84,17,3,17,0.08
2014-7-3,94.5,77.2,66.7,60.0,52.5,43.0,67,45,18,30.08,29.93,28,3,28,0.12
2014-7-4,93.9,74.0,66.6,66.2,57.8,47.7,97,63,23,30.20,29.99,31,2,31,1.42
2014-7-5,91.4,76.8,66.7,67.2,58.4,45.4,98,59,21,30.43,30.02,15,2,15,0.00
2014-7-6,87.4,75.2,69.6,66.5,58.8,51.1,80,58,30,30.49,30.05,13,3,13,0.04
2014-7-7,91.4,73.8,65.7,76.4,62.9,52.7,98,73,31,31.29,30.08,17,2,17,0.63
2014-7-8,96.8,76.6,64.2,63.8,57.1,44.9,86,57,20,31.70,30.23,15,3,15,0.00
2014-7-9,91.9,76.0,66.2,60.3,53.3,45.4,75,48,21,32.26,30.26,31,4,32,0.00
2014-7-10,95.2,79.4,65.7,58.8,52.1,43.7,75,43,19,34.98,30.32,17,4,17,0.00
2014-7-11,93.9,76.8,63.3,68.6,57.1,43.4,98,58,20,31.88,30.40,25,4,25,1.22
2014-7-12,93.0,76.9,67.1,65.4,57.3,43.3,93,56,21,32.44,30.52,16,2,16,0.00
2014-7-13,98.2,77.8,67.8,65.8,58.9,50.1,83,57,22,34.69,30.64,25,3,25,0.00
2014-7-14,95.7,75.5,67.1,71.2,62.8,49.3,95,70,23,34.42,30.85,14,5,14,0.55
2014-7-15,89.8,74.7,65.8,63.5,57.2,48.3,89,58,26,34.51,30.73,23,4,23,0.00
2014-7-16,90.7,78.6,67.3,61.9,54.8,45.4,79,48,24,34.92,30.67,22,4,22,0.00
2014-7-17,90.1,78.3,65.7,62.1,46.7,34.5,81,40,18,34.83,30.88,18,5,19,0.00
2014-7-18,93.0,80.0,67.1,47.7,42.4,35.3,45,28,17,33.74,30.94,15,4,15,0.00
2014-7-19,96.4,82.4,68.2,50.4,43.5,38.6,50,27,17,34.95,30.82,15,4,15,0.00
2014-7-20,94.6,77.1,67.8,53.0,43.1,34.5,47,31,14,34.89,30.67,19,3,19,0.00
2014-7-21,99.0,82.3,70.7,58.4,46.8,32.7,65,33,13,34.92,31.26,13,3,13,0.00
2014-7-22,102.9,84.8,66.9,52.0,42.7,33.8,41,24,12,34.92,30.99,20,3,20,0.00
2014-7-23,100.4,82.6,68.2,56.0,51.2,43.4,62,37,16,34.83,30.61,17,3,17,0.00
2014-7-24,101.8,83.5,65.7,53.1,43.2,25.3,52,29,7,34.98,30.85,15,3,15,0.00
2014-7-25,99.9,80.9,68.7,55.1,49.1,42.4,51,35,16,34.21,30.61,26,4,26,0.00
2014-7-26,97.2,81.0,64.8,57.4,50.2,44.7,64,38,17,32.12,30.64,14,5,14,0.00
2014-7-27,97.5,78.7,66.6,61.1,53.0,43.4,81,45,17,32.44,30.35,21,5,21,0.08
2014-7-28,94.6,78.2,66.2,64.6,57.4,50.8,85,53,27,32.21,30.79,12,3,13,0.04
2014-7-29,95.4,80.1,65.8,59.0,51.3,43.6,68,40,18,33.95,31.20,14,2,14,0.00
2014-7-30,95.4,79.4,67.1,58.3,51.2,42.9,58,40,18,35.10,30.94,17,3,17,0.00
2014-7-31,95.7,79.6,70.0,62.2,53.3,44.1,71,44,19,34.86,31.20,16,4,16,0.00
2014-8-1,90.7,74.5,65.7,65.2,57.7,49.9,97,59,30,34.98,31.38,12,3,12,0.31
2014-8-2,80.2,70.4,65.7,68.8,64.0,58.7,98,81,57,35.22,31.61,13,1,13,0.12
2014-8-3,90.5,76.1,63.0,65.1,58.8,50.4,93,60,28,35.16,31.85,10,2,10,0.00
2014-8-4,93.7,77.7,64.8,60.9,55.7,49.9,80,50,27,35.13,32.26,13,2,13,0.00
2014-8-5,93.0,77.0,62.2,61.1,48.1,32.6,82,43,14,35.25,31.91,9,1,9,0.00
2014-8-6,95.4,79.1,62.6,52.5,42.5,31.0,49,30,11,35.07,31.94,15,3,15,0.00
2014-8-7,91.0,78.9,69.8,59.4,48.8,39.6,63,38,19,35.25,33.92,14,3,14,0.00
2014-8-8,94.8,79.0,63.0,58.1,47.2,36.3,76,37,14,35.25,32.38,15,3,15,0.00
2014-8-9,94.1,78.6,64.6,61.6,51.2,42.3,89,43,17,35.25,31.44,19,4,19,0.12
2014-8-10,92.5,76.4,63.9,62.1,55.8,49.6,90,53,26,35.25,32.29,15,2,15,0.08
2014-8-11,90.9,77.5,65.3,62.0,55.6,49.9,85,50,27,35.25,35.04,13,3,13,0.00
2014-8-12,90.7,74.6,65.8,66.6,58.8,52.8,98,62,30,35.25,32.68,13,3,13,1.30
2014-8-13,89.4,73.0,66.2,73.6,66.5,56.1,98,84,35,35.25,35.25,35,2,35,0.71
2014-8-14,82.2,73.3,65.3,67.2,63.0,57.6,96,73,45,35.25,35.25,15,2,15,0.71
2014-8-15,86.5,75.4,68.5,66.3,60.9,51.2,88,64,31,35.25,33.65,14,2,14,0.00
2014-8-16,92.8,77.9,67.5,65.9,57.1,49.4,87,53,25,35.25,34.98,15,2,15,0.00
2014-8-17,93.9,77.8,67.1,62.3,54.0,45.7,84,46,23,35.25,35.25,23,4,23,0.08
2014-8-18,90.9,71.5,63.9,61.3,57.4,47.3,85,65,24,35.25,35.25,15,2,15,0.00
2014-8-19,82.0,70.5,66.0,67.6,62.0,52.6,98,76,40,35.25,35.25,13,2,13,0.24
2014-8-20,83.7,71.0,63.0,65.9,58.8,46.5,98,69,32,35.25,35.25,12,1,12,0.00
2014-8-21,84.7,70.6,61.3,66.5,56.2,48.0,85,63,32,35.25,33.95,13,2,13,0.08
2014-8-22,83.1,72.4,62.1,59.3,54.1,49.2,82,55,33,35.25,35.25,13,2,13,0.00
2014-8-23,87.3,73.1,59.9,60.7,51.6,43.3,86,52,24,35.25,33.18,17,3,17,0.00
2014-8-24,90.7,74.2,59.2,54.9,49.5,41.5,72,46,21,35.25,35.25,15,3,15,0.00
2014-8-25,89.4,72.9,60.4,63.5,55.6,47.4,81,57,28,35.25,35.25,15,2,15,0.00
2014-8-26,82.6,68.4,62.8,69.0,63.0,53.3,98,84,46,35.25,35.25,17,2,17,1.42
2014-8-27,86.9,72.9,62.6,69.4,59.4,49.3,98,68,30,35.25,35.25,12,1,12,0.00
2014-8-28,90.1,74.3,60.8,59.0,52.3,45.0,82,50,25,35.25,35.25,8,1,8,0.00
2014-8-29,92.7,74.2,58.8,54.5,46.8,39.3,72,42,18,35.25,35.25,7,1,7,0.00
2014-8-30,96.3,84.2,66.6,53.2,46.2,39.0,62,28,17,35.25,35.25,11,3,11,0.00
2014-8-31,93.6,78.1,61.9,51.5,42.4,31.8,58,31,15,35.25,35.25,18,3,18,0.00
2014-9-1,95.4,76.3,58.6,46.3,38.4,24.8,51,29,9,35.25,35.25,11,2,11,0.00
2014-9-2,97.2,78.8,57.9,46.8,38.4,24.7,58,27,8,35.25,35.25,10,2,11,0.00
2014-9-3,93.9,77.7,59.5,51.0,42.0,36.4,57,31,14,35.25,35.25,11,2,11,0.00
2014-9-4,94.5,76.6,67.6,56.8,48.4,38.6,67,40,19,35.25,35.25,18,3,18,0.00
2014-9-5,89.8,75.1,64.4,59.5,52.3,45.4,82,49,24,35.25,35.25,10,2,10,0.00
2014-9-6,87.4,72.9,64.4,61.7,55.8,49.0,72,56,34,35.25,35.25,15,2,19,0.00
2014-9-7,88.5,74.5,63.9,59.8,55.3,50.9,78,54,31,35.25,35.25,10,2,10,0.00
2014-9-8,82.2,68.9,65.5,69.0,62.1,54.7,98,81,45,35.25,35.25,11,1,11,0.63
2014-9-9,84.4,72.3,64.2,72.6,59.2,45.7,98,70,30,35.25,35.25,15,3,15,0.04
2014-9-10,86.9,71.3,58.5,59.8,49.7,40.2,84,52,21,35.25,35.25,12,2,12,0.00
2014-9-11,90.3,73.8,58.5,58.5,49.7,42.2,76,47,19,35.25,35.25,8,1,8,0.00
2014-9-12,91.6,73.8,60.6,57.5,52.0,46.5,71,49,25,35.25,35.25,10,2,11,0.00
2014-9-13,83.7,70.2,59.5,56.8,50.8,45.7,77,53,30,35.25,35.25,11,3,11,0.00
2014-9-14,88.7,71.4,58.5,53.6,50.9,48.1,75,51,28,35.25,35.25,8,2,9,0.00
2014-9-15,89.4,72.2,61.3,68.4,55.6,49.4,97,61,29,35.25,35.25,14,2,14,0.31
2014-9-16,75.2,68.5,64.8,66.5,64.1,61.8,98,86,67,35.25,35.25,10,2,10,0.43
2014-9-17,73.0,67.0,63.7,71.5,66.1,63.1,98,97,89,35.25,21.96,17,2,17,1.38
2014-9-18,75.6,67.3,62.1,69.5,63.6,58.6,98,89,59,21.96,21.96,10,2,10,0.94
2014-9-19,85.6,71.9,63.3,67.3,62.1,54.5,97,74,39,21.96,21.96,6,0,6,0.00
2014-9-20,84.6,72.6,63.1,66.4,61.2,54.5,91,70,40,21.96,21.96,11,1,11,0.00
2014-9-21,85.5,70.8,63.0,69.0,62.7,56.7,98,78,43,21.96,21.96,17,2,17,0.83
2014-9-22,86.5,72.6,62.2,72.6,63.5,55.5,98,77,38,21.96,21.96,10,1,11,0.00
2014-9-23,87.6,72.5,63.3,66.0,59.9,52.3,94,68,32,21.96,21.96,8,1,8,0.00
2014-9-24,90.1,73.4,61.7,62.3,57.2,52.0,88,60,30,21.96,21.96,10,1,10,0.00
2014-9-25,90.9,73.1,61.0,59.3,54.5,49.8,80,56,28,21.96,21.96,11,2,12,0.00
2014-9-26,81.1,70.4,63.3,59.0,53.8,47.2,76,58,31,21.96,21.96,11,2,11,0.00
2014-9-27,86.5,71.0,59.2,59.5,53.5,46.5,84,58,29,21.96,21.96,14,4,14,0.00
2014-9-28,82.6,71.1,61.3,59.2,50.4,41.9,82,52,25,21.96,21.96,14,5,14,0.00
2014-9-29,82.2,69.9,57.6,58.8,47.7,35.3,81,49,29,21.96,21.96,13,4,13,0.00
2014-9-30,81.7,65.0,50.4,42.6,36.2,28.8,69,37,17,21.96,21.96,13,2,13,0.00
2014-10-1,82.0,62.4,46.6,40.2,33.0,27.0,64,36,14,30.17,21.96,12,2,12,0.00
2014-10-2,83.3,62.6,46.0,38.5,30.2,16.7,64,33,9,30.32,30.17,10,2,10,0.00
2014-10-3,84.7,63.8,45.0,37.1,30.0,23.2,50,31,11,30.37,30.29,8,1,8,0.00
2014-10-4,87.6,67.6,48.2,40.3,29.3,16.6,49,28,8,30.35,30.20,14,3,14,0.00
2014-10-5,84.2,68.9,51.1,42.2,35.2,30.4,51,31,16,30.29,30.17,15,3,15,0.00
2014-10-6,86.2,67.2,52.0,41.4,33.1,17.6,51,31,11,30.29,30.20,9,2,10,0.00
2014-10-7,83.3,64.8,53.8,55.5,42.3,30.8,80,46,23,30.29,30.17,19,2,19,0.12
2014-10-8,76.5,64.1,59.7,63.5,58.9,53.7,98,85,48,30.26,30.11,11,1,11,0.83
2014-10-9,72.1,62.8,55.4,63.2,55.7,48.3,98,80,46,30.23,30.14,15,4,15,0.12
2014-10-10,77.5,63.7,50.5,57.6,49.2,42.6,94,64,30,30.29,30.20,14,2,14,0.00
2014-10-11,79.2,63.6,51.3,55.9,46.1,35.7,93,58,23,30.32,30.20,9,1,9,0.00
2014-10-12,78.1,64.8,49.6,50.3,39.4,31.7,78,44,21,30.20,30.08,25,5,25,0.00
2014-10-13,75.2,60.9,48.2,39.4,34.2,27.6,64,39,21,30.32,30.20,9,2,9,0.00
2014-10-14,78.6,59.7,43.9,38.1,33.9,30.2,63,40,21,30.35,30.23,8,2,8,0.00
2014-10-15,85.1,65.3,47.3,42.3,36.1,28.6,52,36,19,30.29,30.20,13,2,13,0.00
2014-10-16,84.4,66.4,51.4,48.0,39.9,33.7,74,41,20,30.29,30.17,12,2,12,0.00
2014-10-17,78.3,62.4,52.3,43.9,37.4,32.0,68,42,21,30.26,30.17,9,1,9,0.00
2014-10-18,82.4,62.9,45.9,43.4,36.4,31.4,66,40,21,30.20,30.08,15,2,15,0.00
2014-10-19,76.3,62.8,53.4,47.1,42.3,36.1,68,49,31,30.20,30.08,11,3,11,0.00
2014-10-20,73.9,59.6,48.4,50.1,43.7,40.1,81,58,33,30.23,30.14,11,2,11,0.00
2014-10-21,74.1,60.1,48.6,51.3,43.7,40.3,81,58,32,30.23,30.11,9,1,9,0.00
2014-10-22,77.7,61.5,49.1,51.0,42.6,36.0,90,54,24,30.29,30.17,10,1,10,0.00
2014-10-23,79.5,62.1,46.2,48.1,39.6,33.4,78,48,21,30.35,30.26,9,1,9,0.00
2014-10-24,82.9,64.0,48.0,46.5,39.4,35.8,67,43,21,30.37,30.29,6,1,6,0.00
2014-10-25,85.5,66.5,48.9,46.5,41.1,36.1,69,43,21,30.37,30.26,11,1,11,0.00
2014-10-26,85.6,68.6,54.0,48.3,41.1,35.5,68,40,19,30.26,30.11,17,3,17,0.00
2014-10-27,78.3,64.4,53.1,50.1,41.1,32.9,67,45,20,30.23,30.11,9,2,9,0.00
2014-10-28,75.4,59.1,44.1,43.8,38.7,33.6,74,49,30,30.32,30.23,9,1,9,0.00
2014-10-29,79.2,60.9,45.5,41.2,35.2,29.8,65,41,20,30.35,30.26,10,1,10,0.00
2014-10-30,81.1,61.0,42.8,40.0,33.4,28.4,59,38,17,30.35,30.23,10,1,10,0.00
2014-10-31,82.2,64.5,51.6,45.6,36.9,30.6,52,37,24,30.29,30.17,17,3,17,0.00
2014-11-1,80.1,64.0,51.6,46.7,35.7,22.0,73,39,12,30.20,30.08,22,4,22,0.00
2014-11-2,72.3,58.7,46.4,52.1,39.8,32.1,85,51,33,30.20,30.05,18,5,19,0.20
2014-11-3,64.2,50.3,37.6,36.6,30.4,21.7,76,49,31,30.23,30.14,14,3,14,0.00
2014-11-4,63.5,48.5,33.3,31.5,26.7,20.9,73,44,27,30.32,30.23,13,2,13,0.00
2014-11-5,66.9,53.4,42.1,36.9,32.4,27.3,67,46,30,30.40,30.26,13,3,13,0.00
2014-11-6,68.9,52.9,39.6,37.8,33.2,25.9,71,49,31,30.49,30.40,15,3,15,0.00
2014-11-7,70.0,52.8,40.3,39.1,34.3,29.3,74,52,28,30.43,30.26,8,2,8,0.00
2014-11-8,74.8,53.8,36.3,38.0,30.7,25.7,73,45,22,30.40,30.29,13,2,13,0.00
2014-11-9,72.9,54.2,40.6,38.5,30.1,24.4,63,41,24,30.35,30.11,8,1,8,0.00
2014-11-10,75.2,58.8,39.9,35.0,29.4,24.8,60,35,18,30.14,30.05,19,4,19,0.00
2014-11-11,73.6,58.3,42.4,41.8,35.2,29.5,68,44,25,30.20,30.11,8,2,8,0.00
2014-11-12,73.6,57.4,42.8,46.2,36.4,29.1,85,49,23,30.23,30.11,15,2,15,0.00
2014-11-13,69.8,54.7,40.8,42.5,34.1,26.3,80,48,28,30.29,30.20,8,2,9,0.00
2014-11-14,74.5,55.6,37.6,42.9,32.7,24.2,64,44,22,30.26,30.11,17,3,17,0.00
2014-11-15,69.3,57.6,45.3,44.3,35.1,18.2,76,46,15,30.26,30.14,19,4,19,0.00
2014-11-16,63.7,51.2,34.3,37.6,27.5,10.5,55,40,31,30.32,30.08,20,5,20,0.00
2014-11-17,58.8,41.7,29.5,23.9,12.8,4.2,34,31,25,30.37,30.26,9,3,9,0.00
2014-11-18,61.5,42.3,29.7,24.5,13.3,7.2,40,31,19,30.43,30.32,9,2,9,0.00
2014-11-19,66.4,42.9,25.3,27.5,12.7,1.0,42,30,18,30.40,30.26,8,0,8,0.00
2014-11-20,68.7,45.4,25.3,24.2,10.8,3.6,42,27,10,30.29,30.17,15,2,15,0.00
2014-11-21,67.6,45.9,30.9,27.1,13.4,5.4,43,29,13,30.20,30.05,11,2,11,0.00
2014-11-22,66.6,47.2,29.7,25.6,13.5,6.4,43,28,13,30.26,30.14,13,2,13,0.00
2014-11-23,63.1,48.1,32.9,26.2,14.6,-10.0,40,27,13,30.29,30.14,20,5,20,0.00
2014-11-24,60.4,40.4,20.8,4.7,-5.6,-14.9,20,14,9,30.46,30.26,18,4,18,0.00
2014-11-25,58.6,40.9,24.8,3.4,-5.5,-14.9,19,14,9,30.55,30.40,10,1,10,0.00
2014-11-26,70.2,44.1,23.9,10.4,-1.2,-14.9,22,15,9,30.49,30.37,7,1,7,0.00
2014-11-27,73.0,51.7,34.9,17.6,9.1,1.2,29,19,9,30.46,30.35,8,1,8,0.00
2014-11-28,74.1,49.9,35.8,22.6,10.8,2.5,32,22,9,30.37,30.20,8,1,8,0.00
2014-11-29,75.6,50.3,29.8,26.0,7.9,-6.5,40,21,7,30.23,30.11,17,2,17,0.00
2014-11-30,72.7,49.2,32.5,21.4,5.9,-3.5,31,19,7,30.32,30.20,10,2,13,0.00
2014-12-1,64.8,45.5,28.6,24.7,11.8,3.5,40,27,13,30.40,30.26,6,0,6,0.00
2014-12-2,63.7,51.6,38.5,36.6,18.6,9.4,53,28,16,30.29,30.20,12,1,12,0.00
2014-12-3,72.9,58.1,47.3,44.8,39.1,33.7,68,50,34,30.32,30.20,10,2,10,0.00
2014-12-4,57.6,51.8,42.6,55.7,45.7,37.0,97,81,55,30.29,30.17,15,2,15,0.16
2014-12-5,63.9,47.5,36.9,56.3,42.1,33.3,98,82,54,30.37,30.29,8,0,8,0.00
2014-12-6,57.0,47.7,41.5,42.7,38.9,34.9,84,72,49,30.40,30.32,11,2,11,0.04
2014-12-7,68.2,50.4,39.4,42.2,37.0,33.7,82,63,34,30.43,30.32,8,2,8,0.00
2014-12-8,69.6,52.4,40.5,40.6,35.6,32.4,75,55,33,30.37,30.29,10,2,10,0.00
2014-12-9,70.2,56.0,47.5,39.7,35.9,31.9,61,48,32,30.32,30.20,8,3,8,0.00
2014-12-10,71.4,52.8,39.9,44.3,35.3,26.5,83,54,25,30.26,30.17,14,2,14,0.00
2014-12-11,71.2,49.0,33.3,37.2,24.6,14.6,71,43,14,30.29,30.20,10,2,10,0.00
2014-12-12,71.6,51.9,35.8,38.2,27.6,16.9,53,40,26,30.35,30.23,15,3,15,0.00
2014-12-13,65.5,51.2,38.5,43.3,35.5,28.9,90,57,34,30.23,30.08,17,6,17,0.08
2014-12-14,56.5,40.9,30.2,35.1,28.3,23.1,83,63,34,30.26,30.17,14,2,14,0.00
2014-12-15,63.7,41.1,27.1,36.2,27.0,19.2,78,59,35,30.29,30.17,9,1,9,0.00
2014-12-16,59.7,47.1,36.3,33.1,28.4,24.9,71,50,34,30.26,30.14,9,2,9,0.00
2014-12-17,54.0,46.6,41.0,42.1,35.1,26.5,98,66,42,30.29,30.17,15,3,15,0.12
2014-12-18,48.6,41.6,33.1,47.1,39.3,29.6,98,92,75,30.32,30.20,10,2,13,0.16
2014-12-19,51.8,36.8,28.6,39.4,28.7,21.3,93,74,42,30.37,30.26,8,1,8,0.00
2014-12-20,56.8,38.6,27.7,34.4,26.2,21.3,84,63,35,30.32,30.20,6,1,6,0.00
2014-12-21,60.6,51.1,38.5,35.2,29.4,25.8,60,44,35,30.23,30.17,13,4,13,0.00
2014-12-22,63.3,46.5,33.3,37.6,30.6,24.1,77,56,34,30.20,30.02,13,4,13,0.00
2014-12-23,54.7,44.2,27.9,34.9,19.6,7.0,74,40,18,30.32,30.08,19,4,19,0.00
2014-12-24,57.0,37.5,26.6,22.5,13.7,7.6,47,38,25,30.35,30.05,8,2,8,0.00
2014-12-25,64.4,47.2,34.3,32.3,16.3,5.5,78,35,10,30.05,29.84,26,8,26,7.68
2014-12-26,48.9,38.0,23.0,28.5,14.8,5.2,68,40,22,30.20,29.96,19,5,19,0.00
2014-12-27,46.9,29.9,18.0,16.4,9.8,2.0,58,44,28,30.40,30.20,10,2,10,0.00
2014-12-28,51.8,32.7,17.2,23.2,13.2,4.0,59,45,29,30.37,30.23,6,1,6,0.00
2014-12-29,61.0,36.1,20.8,24.0,11.0,-0.2,58,38,12,30.29,30.17,10,1,10,0.00
2014-12-30,66.9,43.7,23.4,22.0,5.8,-3.8,47,25,7,30.20,30.08,17,4,17,0.00
2014-12-31,50.7,43.6,32.7,30.2,12.5,-0.7,77,31,14,30.11,29.99,22,6,22,0.00
2015-1-1,45.5,33.1,22.6,26.1,19.8,12.7,80,59,39,30.17,30.02,28,4,28,0.31
2015-1-2,42.8,31.9,25.2,23.5,18.6,13.9,74,58,41,30.17,30.02,16,5,16,0.00